Time;durP1;ratioP1;P1;durP2;ratioP2;P2;SDS_P1;SDS_P2;PMS_P1;PMS_P2;Temp;Humidity;BMP_temperature;BMP_pressure;BME280_temperature;BME280_humidity;BME280_pressure;Samples;Min_cycle;Max_cycle;Signal;HPM_P1;HPM_P2
2023/01/06 00:00:16;;;;;;;27.35;11.20;;;8.10;99.90;;;;;;4944801;29;20055;-64
2023/01/06 00:02:42;;;;;;;35.75;12.35;;;8.00;99.90;;;;;;4943145;29;20145;-63
2023/01/06 00:05:08;;;;;;;38.05;12.43;;;8.00;99.90;;;;;;4914168;29;20480;-64
2023/01/06 00:07:33;;;;;;;34.05;12.40;;;8.00;99.90;;;;;;4955882;28;20052;-63
2023/01/06 00:09:59;;;;;;;31.40;11.20;;;8.10;99.90;;;;;;4976983;28;20043;-64
2023/01/06 00:12:25;;;;;;;32.72;12.00;;;8.10;99.90;;;;;;4977942;28;20055;-63
2023/01/06 00:14:51;;;;;;;26.98;11.68;;;8.10;99.90;;;;;;4929056;29;20138;-63
2023/01/06 00:17:17;;;;;;;30.73;12.68;;;8.10;99.90;;;;;;4961469;28;20039;-63
2023/01/06 00:19:43;;;;;;;37.20;12.02;;;8.00;99.90;;;;;;4935639;29;20049;-64
2023/01/06 00:22:09;;;;;;;44.45;13.68;;;8.00;99.90;;;;;;4960881;28;20043;-64
2023/01/06 00:24:34;;;;;;;42.53;13.55;;;8.10;99.90;;;;;;4913245;29;20128;-63
2023/01/06 00:27:00;;;;;;;37.05;12.55;;;8.10;99.90;;;;;;4927975;29;20043;-63
2023/01/06 00:29:26;;;;;;;33.78;12.18;;;8.00;99.90;;;;;;4928063;29;20568;-63
2023/01/06 00:31:52;;;;;;;35.45;12.75;;;8.00;99.90;;;;;;4930724;29;20070;-63
2023/01/06 00:34:19;;;;;;;33.97;11.65;;;8.00;99.90;;;;;;4960257;28;20051;-64
2023/01/06 00:36:45;;;;;;;32.28;11.95;;;8.10;99.90;;;;;;4958853;28;20058;-63
2023/01/06 00:39:12;;;;;;;35.22;12.05;;;8.10;99.90;;;;;;4933683;29;20043;-63
2023/01/06 00:44:23;;;;;;;37.20;13.00;;;8.00;99.90;;;;;;4953327;28;20583;-63
2023/01/06 00:46:49;;;;;;;34.22;11.93;;;8.00;99.90;;;;;;4945948;29;20051;-64
2023/01/06 00:49:14;;;;;;;38.05;13.00;;;8.10;99.90;;;;;;4960982;28;20234;-63
2023/01/06 00:51:40;;;;;;;33.20;12.75;;;8.00;99.90;;;;;;4934796;28;20093;-63
2023/01/06 00:54:07;;;;;;;33.35;14.20;;;8.00;99.90;;;;;;4933083;29;20047;-63
2023/01/06 00:56:36;;;;;;;31.85;12.38;;;8.00;99.90;;;;;;4939486;28;20047;-63
2023/01/06 00:59:02;;;;;;;36.53;12.73;;;8.10;99.90;;;;;;4939862;28;20062;-63
2023/01/06 01:01:28;;;;;;;33.20;12.50;;;8.00;99.90;;;;;;4930464;29;20381;-63
2023/01/06 01:03:55;;;;;;;32.40;12.18;;;8.10;99.90;;;;;;4933551;29;20047;-63
2023/01/06 01:06:21;;;;;;;29.27;11.13;;;8.00;99.90;;;;;;4946613;29;20043;-63
2023/01/06 01:08:47;;;;;;;35.22;13.55;;;8.00;99.90;;;;;;4930945;29;20085;-63
2023/01/06 01:12:08;;;;;;;38.08;12.85;;;8.00;99.90;;;;;;4947089;28;20047;-63
2023/01/06 01:14:02;;;;;;;37.38;14.02;;;8.00;99.90;;;;;;4957536;28;20059;-63
2023/01/06 01:16:28;;;;;;;30.60;12.50;;;8.00;99.90;;;;;;4913093;29;20075;-63
2023/01/06 01:18:55;;;;;;;35.30;12.68;;;8.00;99.90;;;;;;4959156;28;20086;-62
2023/01/06 01:21:22;;;;;;;30.75;12.55;;;8.00;99.90;;;;;;4960744;28;20561;-63
2023/01/06 01:23:48;;;;;;;35.95;12.95;;;8.00;99.90;;;;;;4964320;28;20061;-63
2023/01/06 01:26:14;;;;;;;37.42;12.80;;;8.00;99.90;;;;;;4949485;29;20389;-63
2023/01/06 01:28:39;;;;;;;38.67;12.77;;;7.90;99.90;;;;;;4965895;28;20081;-62
2023/01/06 01:31:06;;;;;;;34.50;12.77;;;8.00;99.90;;;;;;4974431;28;20051;-63
2023/01/06 01:33:32;;;;;;;37.58;14.23;;;7.90;99.90;;;;;;4965699;28;20047;-62
2023/01/06 01:36:18;;;;;;;30.70;12.77;;;7.90;99.90;;;;;;4949194;28;20073;-63
2023/01/06 01:38:44;;;;;;;38.83;13.55;;;7.90;99.90;;;;;;4950799;29;20133;-63
2023/01/06 01:41:15;;;;;;;31.65;12.65;;;7.90;99.90;;;;;;4982203;28;20150;-63
2023/01/06 01:44:00;;;;;;;33.50;13.05;;;7.90;99.90;;;;;;4980044;28;20051;-62
2023/01/06 01:46:39;;;;;;;43.55;14.90;;;7.90;99.90;;;;;;4950938;28;20070;-62
2023/01/06 01:49:25;;;;;;;31.85;13.15;;;7.90;99.90;;;;;;4950620;29;20055;-63
2023/01/06 01:51:53;;;;;;;33.17;13.25;;;7.90;99.90;;;;;;4945439;28;20054;-63
2023/01/06 01:54:21;;;;;;;43.70;13.43;;;7.90;99.90;;;;;;4932276;29;20047;-63
2023/01/06 01:56:51;;;;;;;34.47;13.57;;;7.90;99.90;;;;;;4963539;28;20048;-62
2023/01/06 01:59:20;;;;;;;32.03;13.45;;;7.90;99.90;;;;;;4933844;28;20055;-62
2023/01/06 02:01:46;;;;;;;36.63;12.13;;;7.90;99.90;;;;;;4949075;29;20067;-63
2023/01/06 02:04:12;;;;;;;36.55;11.98;;;7.90;99.90;;;;;;4964757;28;20081;-62
2023/01/06 02:06:39;;;;;;;34.60;12.70;;;7.90;99.90;;;;;;4981230;28;20362;-62
2023/01/06 02:09:16;;;;;;;26.27;12.52;;;8.00;99.90;;;;;;4980794;28;20051;-62
2023/01/06 02:11:42;;;;;;;31.15;13.45;;;7.90;99.90;;;;;;4949383;28;20121;-63
2023/01/06 02:14:16;;;;;;;29.45;13.40;;;7.90;99.90;;;;;;4984814;28;20044;-63
2023/01/06 02:17:07;;;;;;;30.40;12.52;;;8.00;99.90;;;;;;4969400;28;20058;-63
2023/01/06 02:20:01;;;;;;;37.72;13.70;;;8.00;99.90;;;;;;4984870;28;20122;-63
2023/01/06 02:22:38;;;;;;;26.63;10.70;;;8.00;99.90;;;;;;4953756;29;20043;-63
2023/01/06 02:25:41;;;;;;;36.38;12.63;;;8.00;99.90;;;;;;4985521;28;20039;-63
2023/01/06 02:28:29;;;;;;;30.15;11.68;;;8.00;99.90;;;;;;4962854;28;20066;-64
2023/01/06 02:31:01;;;;;;;31.13;12.60;;;8.00;99.90;;;;;;4953907;28;20046;-63
2023/01/06 02:33:50;;;;;;;35.65;12.95;;;8.10;99.90;;;;;;4953276;28;20081;-63
2023/01/06 02:36:38;;;;;;;29.15;12.35;;;8.00;99.90;;;;;;4967257;28;20062;-63
2023/01/06 02:39:21;;;;;;;27.90;11.13;;;8.00;99.90;;;;;;4953918;29;20047;-62
2023/01/06 02:41:52;;;;;;;29.35;11.88;;;8.10;99.90;;;;;;4943994;29;20051;-63
2023/01/06 02:44:32;;;;;;;32.42;11.43;;;8.00;99.90;;;;;;4953478;28;20077;-63
2023/01/06 02:47:07;;;;;;;26.90;12.15;;;8.00;99.90;;;;;;4967242;28;20066;-63
2023/01/06 02:49:47;;;;;;;29.33;11.63;;;8.00;99.90;;;;;;4952701;29;20117;-64
2023/01/06 02:52:24;;;;;;;36.30;11.77;;;8.00;99.90;;;;;;4983880;28;20109;-63
2023/01/06 02:55:03;;;;;;;29.65;12.77;;;8.10;99.90;;;;;;4951539;29;20050;-62
2023/01/06 02:57:36;;;;;;;30.92;12.60;;;8.00;99.90;;;;;;4968021;28;20062;-63
2023/01/06 03:00:08;;;;;;;30.67;12.65;;;8.00;99.90;;;;;;4983858;28;20055;-62
2023/01/06 03:02:34;;;;;;;28.52;12.05;;;8.10;99.90;;;;;;4967358;28;20059;-62
2023/01/06 03:05:01;;;;;;;28.95;12.85;;;8.00;99.90;;;;;;4947323;28;20102;-64
2023/01/06 03:07:27;;;;;;;31.55;12.75;;;8.00;99.90;;;;;;4920163;29;20115;-62
2023/01/06 03:09:53;;;;;;;32.30;12.70;;;8.00;99.90;;;;;;4968903;28;20473;-63
2023/01/06 03:12:38;;;;;;;33.17;12.25;;;8.00;99.90;;;;;;4983982;28;20110;-63
2023/01/06 03:15:04;;;;;;;27.88;13.00;;;8.00;99.90;;;;;;4965255;28;20047;-63
2023/01/06 03:17:31;;;;;;;34.17;13.55;;;8.00;99.90;;;;;;4959680;28;20415;-64
2023/01/06 03:19:57;;;;;;;25.65;12.13;;;8.00;99.90;;;;;;4967876;28;20050;-64
2023/01/06 03:22:22;;;;;;;31.27;13.27;;;8.00;99.90;;;;;;4965537;28;20137;-63
2023/01/06 03:24:48;;;;;;;30.38;13.18;;;8.00;99.90;;;;;;4934459;29;21125;-63
2023/01/06 03:27:15;;;;;;;33.40;13.20;;;8.00;99.90;;;;;;4949140;29;20613;-63
2023/01/06 03:29:41;;;;;;;29.83;12.38;;;8.00;99.90;;;;;;4951153;29;20083;-63
2023/01/06 03:32:16;;;;;;;32.20;11.07;;;8.00;99.90;;;;;;4967439;28;20086;-63
2023/01/06 03:34:53;;;;;;;27.27;11.65;;;8.00;99.90;;;;;;4952140;28;20054;-63
2023/01/06 03:37:26;;;;;;;27.63;12.70;;;8.00;99.90;;;;;;4950967;28;20082;-64
2023/01/06 03:40:28;;;;;;;25.67;12.13;;;7.90;99.90;;;;;;4951396;29;20406;-63
2023/01/06 03:43:27;;;;;;;24.25;10.60;;;8.00;99.90;;;;;;4949521;28;20077;-63
2023/01/06 03:45:58;;;;;;;;;;;8.00;99.90;;;;;;4959461;28;20046;-63
2023/01/06 03:49:01;;;;;;;32.25;11.10;;;8.00;99.90;;;;;;4951498;29;19918;-63
2023/01/06 03:51:53;;;;;;;25.27;9.90;;;8.10;99.90;;;;;;4951624;28;20511;-63
2023/01/06 03:54:22;;;;;;;31.35;10.00;;;8.10;99.90;;;;;;4963694;28;20047;-64
2023/01/06 03:56:50;;;;;;;27.65;10.25;;;8.20;99.90;;;;;;4952102;29;20121;-63
2023/01/06 03:59:25;;;;;;;23.52;9.55;;;8.20;99.90;;;;;;4951125;29;20142;-63
2023/01/06 04:01:51;;;;;;;20.30;8.85;;;8.20;99.90;;;;;;4919700;29;20125;-62
2023/01/06 04:04:17;;;;;;;21.27;7.65;;;8.30;99.90;;;;;;4952161;28;20050;-63
2023/01/06 04:06:46;;;;;;;21.25;8.32;;;8.30;99.90;;;;;;4949940;28;20057;-63
2023/01/06 04:09:11;;;;;;;;;;;8.30;99.90;;;;;;4952067;28;20051;-63
2023/01/06 04:14:21;;;;;;;19.60;7.38;;;8.30;99.90;;;;;;4951721;29;20761;-71
2023/01/06 04:16:47;;;;;;;14.38;6.60;;;8.40;99.90;;;;;;4954439;29;20051;-63
2023/01/06 04:19:12;;;;;;;13.55;5.40;;;8.40;99.90;;;;;;4952569;29;20111;-63
2023/01/06 04:21:38;;;;;;;14.02;6.28;;;8.50;99.90;;;;;;4954441;29;20489;-63
2023/01/06 04:24:04;;;;;;;17.70;6.55;;;8.50;99.90;;;;;;4953910;28;20429;-64
2023/01/06 04:26:32;;;;;;;12.00;5.10;;;8.60;99.90;;;;;;4970897;28;20089;-63
2023/01/06 04:28:59;;;;;;;11.40;5.20;;;8.60;99.90;;;;;;4952997;28;20058;-63
2023/01/06 04:31:25;;;;;;;11.85;4.93;;;8.60;99.90;;;;;;4950773;29;20591;-63
2023/01/06 04:33:51;;;;;;;15.63;4.65;;;8.70;99.90;;;;;;4933942;29;20047;-63
2023/01/06 04:36:19;;;;;;;10.23;4.20;;;8.80;99.90;;;;;;4933823;29;20101;-64
2023/01/06 04:38:45;;;;;;;9.93;4.20;;;8.90;99.90;;;;;;4950926;29;20457;-63
2023/01/06 04:41:10;;;;;;;14.45;4.85;;;8.90;99.90;;;;;;4931442;29;20060;-63
2023/01/06 04:43:36;;;;;;;14.35;4.22;;;8.90;99.90;;;;;;4965607;28;20055;-64
2023/01/06 04:46:02;;;;;;;9.45;4.45;;;8.90;99.90;;;;;;4966942;28;20059;-63
2023/01/06 04:48:28;;;;;;;9.98;4.57;;;8.90;99.90;;;;;;4951018;28;20054;-63
2023/01/06 04:51:04;;;;;;;11.00;3.80;;;8.90;99.90;;;;;;4934743;29;20043;-63
2023/01/06 04:53:37;;;;;;;7.85;3.13;;;8.90;99.90;;;;;;4950463;29;20690;-63
2023/01/06 04:56:08;;;;;;;9.63;3.33;;;8.90;99.90;;;;;;4950025;29;20046;-62
2023/01/06 04:58:34;;;;;;;11.35;4.35;;;8.90;99.90;;;;;;4934799;29;20058;-63
2023/01/06 05:01:01;;;;;;;7.43;3.03;;;9.00;99.90;;;;;;4965738;28;20472;-62
2023/01/06 05:03:27;;;;;;;5.03;2.70;;;9.00;99.90;;;;;;4934904;29;20061;-63
2023/01/06 05:05:53;;;;;;;6.18;2.40;;;8.90;99.90;;;;;;4932383;28;20058;-63
2023/01/06 05:08:19;;;;;;;5.57;2.42;;;9.00;99.90;;;;;;4932389;29;20527;-63
2023/01/06 05:10:44;;;;;;;7.13;2.80;;;9.10;99.90;;;;;;4949729;29;20377;-63
2023/01/06 05:13:11;;;;;;;7.35;2.58;;;9.10;99.90;;;;;;4933798;29;20382;-63
2023/01/06 05:15:38;;;;;;;8.27;2.50;;;9.10;99.90;;;;;;4934041;28;20050;-63
2023/01/06 05:18:04;;;;;;;4.15;2.50;;;9.10;99.90;;;;;;4933598;28;20047;-63
2023/01/06 05:20:30;;;;;;;7.13;2.33;;;9.10;99.90;;;;;;4949250;28;20381;-62
2023/01/06 05:22:55;;;;;;;6.63;2.25;;;9.20;99.90;;;;;;4955420;28;20055;-62
2023/01/06 05:25:21;;;;;;;5.53;2.00;;;9.20;99.90;;;;;;4950097;29;20055;-63
2023/01/06 05:27:47;;;;;;;8.00;2.58;;;9.20;99.90;;;;;;4932313;28;20810;-62
2023/01/06 05:30:13;;;;;;;7.22;2.60;;;9.20;99.90;;;;;;4965323;28;20047;-63
2023/01/06 05:32:38;;;;;;;6.32;1.88;;;9.20;99.90;;;;;;4933452;29;20039;-62
2023/01/06 05:35:05;;;;;;;5.80;2.30;;;9.30;99.90;;;;;;4946810;28;20043;-62
2023/01/06 05:37:30;;;;;;;7.63;1.95;;;9.30;99.90;;;;;;4935101;29;20560;-63
2023/01/06 05:39:56;;;;;;;5.57;2.20;;;9.30;99.90;;;;;;4934458;29;20047;-63
2023/01/06 05:42:22;;;;;;;5.30;2.40;;;9.30;99.90;;;;;;4933836;29;20106;-62
2023/01/06 05:44:48;;;;;;;5.25;2.30;;;9.40;99.90;;;;;;4933461;28;20047;-63
2023/01/06 05:47:13;;;;;;;8.30;2.70;;;9.50;99.90;;;;;;4952141;28;20050;-63
2023/01/06 05:49:39;;;;;;;4.95;2.20;;;9.50;99.90;;;;;;4953564;28;20054;-62
2023/01/06 05:52:05;;;;;;;8.45;2.47;;;9.60;99.90;;;;;;4937168;29;20053;-63
2023/01/06 05:54:31;;;;;;;6.85;2.60;;;9.70;99.90;;;;;;4969151;28;20097;-62
2023/01/06 05:56:56;;;;;;;9.75;2.58;;;9.60;99.90;;;;;;4933171;28;20047;-62
2023/01/06 05:59:22;;;;;;;6.43;2.80;;;9.70;99.90;;;;;;4937672;29;20102;-62
2023/01/06 06:01:48;;;;;;;8.43;3.40;;;9.80;99.90;;;;;;4921651;29;20125;-63
2023/01/06 06:04:14;;;;;;;8.60;3.15;;;9.80;99.90;;;;;;4953637;29;20047;-62
2023/01/06 06:06:40;;;;;;;7.45;2.55;;;9.80;99.90;;;;;;4934244;29;20058;-62
2023/01/06 06:09:06;;;;;;;9.63;3.53;;;9.80;99.90;;;;;;4953010;29;20153;-62
2023/01/06 06:11:32;;;;;;;7.22;2.70;;;9.80;99.90;;;;;;4968295;28;20046;-61
2023/01/06 06:13:58;;;;;;;6.90;3.03;;;9.80;99.90;;;;;;4934301;29;20047;-62
2023/01/06 06:16:25;;;;;;;6.70;2.33;;;9.90;99.90;;;;;;4951831;29;20043;-63
2023/01/06 06:18:52;;;;;;;10.40;3.28;;;9.90;99.90;;;;;;4937332;29;20390;-63
2023/01/06 06:21:21;;;;;;;8.73;3.30;;;9.90;99.90;;;;;;4933725;29;20050;-63
2023/01/06 06:23:46;;;;;;;6.50;2.92;;;10.00;99.90;;;;;;4953274;28;20051;-65
2023/01/06 06:26:12;;;;;;;6.82;2.42;;;9.90;99.90;;;;;;4936920;29;20066;-64
2023/01/06 06:28:38;;;;;;;9.90;3.25;;;10.00;99.90;;;;;;4952968;29;20055;-64
2023/01/06 06:31:19;;;;;;;8.82;2.70;;;9.90;99.90;;;;;;4952343;28;20043;-63
2023/01/06 06:33:45;;;;;;;9.30;2.80;;;10.00;99.90;;;;;;4937679;29;20070;-62
2023/01/06 06:36:14;;;;;;;9.45;2.85;;;10.00;99.90;;;;;;4952644;29;20039;-62
2023/01/06 06:38:40;;;;;;;7.97;2.40;;;10.00;99.90;;;;;;4953448;28;20051;-62
2023/01/06 06:41:06;;;;;;;10.93;3.05;;;10.00;99.90;;;;;;4952771;28;20051;-62
2023/01/06 06:43:32;;;;;;;5.03;2.13;;;10.00;99.90;;;;;;4949970;29;20134;-62
2023/01/06 06:45:58;;;;;;;7.95;2.60;;;10.00;99.90;;;;;;4920991;29;20055;-62
2023/01/06 06:48:24;;;;;;;9.10;2.92;;;10.00;99.90;;;;;;4948195;29;20464;-62
2023/01/06 06:51:00;;;;;;;5.68;2.50;;;10.00;99.90;;;;;;4936313;29;20043;-63
2023/01/06 06:53:26;;;;;;;5.18;2.22;;;10.00;99.90;;;;;;4936998;29;20077;-63
2023/01/06 06:55:53;;;;;;;6.93;2.33;;;10.00;99.90;;;;;;4951955;29;20078;-62
2023/01/06 06:58:19;;;;;;;8.07;2.42;;;10.10;99.90;;;;;;4951395;28;20051;-62
2023/01/06 07:00:45;;;;;;;7.60;2.20;;;10.20;99.90;;;;;;4935676;29;20138;-62
2023/01/06 07:03:11;;;;;;;8.52;2.70;;;10.10;99.90;;;;;;4936656;29;20062;-62
2023/01/06 07:05:37;;;;;;;7.85;2.03;;;10.10;99.90;;;;;;4952847;28;20057;-63
2023/01/06 07:08:03;;;;;;;5.93;2.13;;;10.10;99.90;;;;;;4952385;29;20051;-62
2023/01/06 07:10:29;;;;;;;5.07;1.90;;;10.10;99.90;;;;;;4935926;29;20047;-63
2023/01/06 07:12:54;;;;;;;6.55;1.70;;;10.00;99.90;;;;;;4920822;29;20039;-61
2023/01/06 07:15:20;;;;;;;4.95;1.90;;;10.00;99.90;;;;;;4951879;29;20043;-63
2023/01/06 07:17:46;;;;;;;3.25;1.60;;;10.00;99.90;;;;;;4935075;29;20043;-62
2023/01/06 07:20:12;;;;;;;7.55;1.80;;;10.00;99.90;;;;;;4920789;29;20062;-62
2023/01/06 07:22:38;;;;;;;3.95;1.52;;;10.10;99.90;;;;;;4936471;28;20047;-62
2023/01/06 07:25:06;;;;;;;4.65;1.33;;;10.10;99.90;;;;;;4936001;29;20051;-62
2023/01/06 07:27:32;;;;;;;6.97;2.40;;;10.00;99.90;;;;;;4935431;29;20082;-62
2023/01/06 07:29:58;;;;;;;3.85;1.70;;;10.10;99.90;;;;;;4936330;28;20342;-62
2023/01/06 07:32:24;;;;;;;4.22;1.40;;;10.00;99.90;;;;;;4918645;29;20043;-62
2023/01/06 07:34:49;;;;;;;4.47;1.13;;;10.00;99.90;;;;;;4951465;28;20058;-62
2023/01/06 07:37:15;;;;;;;4.65;1.10;;;10.00;99.90;;;;;;4936413;29;20051;-61
2023/01/06 07:39:41;;;;;;;4.53;2.25;;;9.90;99.90;;;;;;4966723;28;20051;-64
2023/01/06 07:42:08;;;;;;;3.55;1.38;;;9.90;99.90;;;;;;4951882;28;20119;-63
2023/01/06 07:44:33;;;;;;;2.78;1.20;;;9.90;99.90;;;;;;4936174;29;20047;-62
2023/01/06 07:47:00;;;;;;;4.28;1.13;;;9.90;99.90;;;;;;4932814;29;20382;-63
2023/01/06 07:49:26;;;;;;;2.88;1.35;;;9.80;99.90;;;;;;4935914;29;20445;-63
2023/01/06 07:51:52;;;;;;;5.63;1.40;;;9.80;99.90;;;;;;4934245;28;20038;-63
2023/01/06 07:54:17;;;;;;;3.63;1.63;;;9.90;99.90;;;;;;4935740;29;20177;-62
2023/01/06 07:56:43;;;;;;;4.80;1.85;;;9.90;99.90;;;;;;4961675;28;20111;-62
2023/01/06 07:59:09;;;;;;;8.05;1.65;;;9.90;99.90;;;;;;4927064;29;20076;-63
2023/01/06 08:01:36;;;;;;;3.63;1.80;;;9.90;99.90;;;;;;4933381;29;20082;-63
2023/01/06 08:04:06;;;;;;;5.60;2.20;;;9.90;99.90;;;;;;4946204;28;20083;-63
2023/01/06 08:06:31;;;;;;;4.65;2.40;;;10.00;99.90;;;;;;4936827;29;20278;-63
2023/01/06 08:09:00;;;;;;;7.20;2.08;;;10.00;99.90;;;;;;4961611;28;20077;-63
2023/01/06 08:11:26;;;;;;;5.50;2.30;;;9.90;99.90;;;;;;4961350;28;20047;-63
2023/01/06 08:13:52;;;;;;;6.90;2.67;;;10.00;99.90;;;;;;4942697;28;20508;-62
2023/01/06 08:16:18;;;;;;;4.65;2.25;;;10.10;99.90;;;;;;4932447;28;20053;-63
2023/01/06 08:18:44;;;;;;;7.15;2.50;;;10.00;99.90;;;;;;4932436;29;20154;-63
2023/01/06 08:21:10;;;;;;;5.93;2.47;;;10.00;99.90;;;;;;4942652;28;20162;-63
2023/01/06 08:23:36;;;;;;;7.50;2.90;;;10.10;99.90;;;;;;4934303;28;20113;-62
2023/01/06 08:26:14;;;;;;;6.70;2.97;;;10.10;99.90;;;;;;4951131;28;20051;-62
2023/01/06 08:28:41;;;;;;;5.70;2.70;;;10.10;99.90;;;;;;4957681;28;20047;-62
2023/01/06 08:31:16;;;;;;;6.75;2.95;;;10.10;99.90;;;;;;4944530;29;20053;-62
2023/01/06 08:33:44;;;;;;;10.20;2.85;;;10.20;99.90;;;;;;4950970;29;20055;-62
2023/01/06 08:36:14;;;;;;;3.38;2.03;;;10.20;99.90;;;;;;4951648;28;20066;-62
2023/01/06 08:38:44;;;;;;;3.67;1.83;;;10.20;99.90;;;;;;4950329;29;20055;-61
2023/01/06 08:41:10;;;;;;;4.90;2.63;;;10.20;99.90;;;;;;4951521;28;20047;-62
2023/01/06 08:43:37;;;;;;;4.72;2.25;;;10.30;99.90;;;;;;4951374;28;20058;-62
2023/01/06 08:46:05;;;;;;;4.18;2.10;;;10.30;99.90;;;;;;4965507;28;20714;-63
2023/01/06 08:48:32;;;;;;;4.82;1.90;;;10.20;99.90;;;;;;4951175;28;20054;-62
2023/01/06 08:51:05;;;;;;;4.85;1.90;;;10.30;99.90;;;;;;4951298;28;20043;-62
2023/01/06 08:53:32;;;;;;;4.93;1.98;;;10.20;99.90;;;;;;4934710;29;20043;-62
2023/01/06 08:55:58;;;;;;;3.67;1.88;;;10.20;99.90;;;;;;4949215;28;20050;-61
2023/01/06 08:58:23;;;;;;;5.45;2.13;;;10.30;99.90;;;;;;4982993;28;20051;-69
2023/01/06 09:00:49;;;;;;;6.20;2.13;;;10.30;99.90;;;;;;4950308;29;20138;-70
2023/01/06 09:03:15;;;;;;;6.03;2.25;;;10.90;99.90;;;;;;4983108;28;20476;-63
2023/01/06 09:05:41;;;;;;;4.90;2.00;;;10.70;99.90;;;;;;4950381;28;20138;-62
2023/01/06 09:08:06;;;;;;;4.28;2.00;;;10.50;99.90;;;;;;4946569;28;20051;-62
2023/01/06 09:10:35;;;;;;;4.63;2.00;;;10.40;99.90;;;;;;4951072;28;20529;-62
2023/01/06 09:13:01;;;;;;;;;;;10.40;99.90;;;;;;4950299;29;20055;-62
2023/01/06 09:15:28;;;;;;;4.68;2.05;;;10.40;99.90;;;;;;4946416;29;19915;-62
2023/01/06 09:17:54;;;;;;;3.88;1.98;;;10.40;99.90;;;;;;4950326;28;20051;-62
2023/01/06 09:20:19;;;;;;;8.27;2.00;;;10.40;99.90;;;;;;4949942;29;20077;-62
2023/01/06 09:22:45;;;;;;;4.70;1.75;;;10.40;99.90;;;;;;4949410;29;20055;-64
2023/01/06 09:25:11;;;;;;;3.40;1.52;;;10.50;99.90;;;;;;4951173;28;20525;-64
2023/01/06 09:27:37;;;;;;;3.95;1.70;;;10.50;99.90;;;;;;4965771;28;20059;-65
2023/01/06 09:30:03;;;;;;;5.70;1.92;;;10.50;99.90;;;;;;4950098;29;20158;-63
2023/01/06 09:32:29;;;;;;;4.90;1.60;;;10.50;99.90;;;;;;4950799;28;20549;-64
2023/01/06 09:34:55;;;;;;;4.07;1.30;;;10.50;99.90;;;;;;4950456;28;20078;-64
2023/01/06 09:37:21;;;;;;;4.55;1.90;;;10.50;99.90;;;;;;4949656;29;20410;-64
2023/01/06 09:39:46;;;;;;;3.42;1.40;;;10.60;99.90;;;;;;4949962;28;20090;-64
2023/01/06 09:42:18;;;;;;;2.72;1.08;;;10.60;99.90;;;;;;4934269;28;20476;-63
2023/01/06 09:44:54;;;;;;;4.22;1.52;;;10.60;99.90;;;;;;4949959;29;20040;-64
2023/01/06 09:47:23;;;;;;;7.57;1.58;;;10.60;99.90;;;;;;4933721;29;20114;-66
2023/01/06 09:49:52;;;;;;;2.45;1.48;;;10.70;99.90;;;;;;4933918;29;20079;-63
2023/01/06 09:52:23;;;;;;;3.83;1.15;;;10.60;99.90;;;;;;4950325;28;20357;-63
2023/01/06 09:55:29;;;;;;;3.50;1.35;;;10.60;99.90;;;;;;4951131;29;20043;-63
2023/01/06 09:58:00;;;;;;;3.90;1.38;;;10.60;99.90;;;;;;4949166;29;20046;-62
2023/01/06 10:00:41;;;;;;;3.70;1.02;;;10.70;99.90;;;;;;4949998;29;20063;-62
2023/01/06 10:03:18;;;;;;;3.20;0.90;;;10.70;99.90;;;;;;4959887;28;20047;-62
2023/01/06 10:06:04;;;;;;;1.58;0.70;;;10.70;99.90;;;;;;4944950;28;20106;-63
2023/01/06 10:09:04;;;;;;;3.80;1.25;;;10.70;99.90;;;;;;4967065;28;20516;-64
2023/01/06 10:11:46;;;;;;;6.15;1.33;;;10.70;99.90;;;;;;4949771;29;20097;-64
2023/01/06 10:14:27;;;;;;;6.25;1.60;;;10.60;99.90;;;;;;4967503;28;20381;-65
2023/01/06 10:17:02;;;;;;;5.10;1.10;;;10.60;99.90;;;;;;4949585;28;20047;-64
2023/01/06 10:19:29;;;;;;;1.73;0.90;;;10.60;99.90;;;;;;4950413;29;20484;-63
2023/01/06 10:22:14;;;;;;;1.88;0.80;;;10.60;99.90;;;;;;4949018;28;20075;-63
2023/01/06 10:25:05;;;;;;;2.40;0.90;;;10.60;99.90;;;;;;4949287;29;20043;-64
2023/01/06 10:27:36;;;;;;;2.70;1.13;;;10.60;99.90;;;;;;4949383;29;20054;-65
2023/01/06 10:30:03;;;;;;;4.28;1.23;;;10.60;99.90;;;;;;4950212;28;20078;-64
2023/01/06 10:32:31;;;;;;;4.40;1.50;;;10.60;99.90;;;;;;4933658;29;20054;-65
2023/01/06 10:34:57;;;;;;;3.22;1.00;;;10.60;99.90;;;;;;4954333;28;20051;-64
2023/01/06 10:37:35;;;;;;;4.35;1.20;;;10.60;99.90;;;;;;4938500;29;20051;-64
2023/01/06 10:40:20;;;;;;;2.45;0.90;;;10.60;99.90;;;;;;4923276;29;20054;-63
2023/01/06 10:43:02;;;;;;;2.75;1.00;;;10.60;99.90;;;;;;4932357;29;20046;-66
2023/01/06 10:45:39;;;;;;;2.90;1.20;;;10.50;99.90;;;;;;4970164;28;20047;-65
2023/01/06 10:48:06;;;;;;;2.25;1.00;;;10.30;99.90;;;;;;4968646;28;20053;-65
2023/01/06 10:50:33;;;;;;;3.10;1.20;;;10.30;99.90;;;;;;4939698;29;20094;-70
2023/01/06 10:52:58;;;;;;;2.88;1.08;;;10.30;99.90;;;;;;4939984;29;20043;-65
2023/01/06 10:55:24;;;;;;;2.20;1.10;;;10.30;99.90;;;;;;4939797;29;20046;-65
2023/01/06 10:57:50;;;;;;;4.65;1.10;;;10.30;99.90;;;;;;4970273;28;20051;-66
2023/01/06 11:00:21;;;;;;;6.00;1.40;;;10.30;99.90;;;;;;4940399;28;20086;-64
2023/01/06 11:02:54;;;;;;;2.88;1.20;;;10.30;99.90;;;;;;4968099;28;20063;-65
2023/01/06 11:05:22;;;;;;;2.72;1.13;;;10.30;99.90;;;;;;4953184;28;20047;-66
2023/01/06 11:08:00;;;;;;;2.90;1.00;;;10.30;99.90;;;;;;4953195;28;20393;-67
2023/01/06 11:10:32;;;;;;;2.60;1.00;;;10.30;99.90;;;;;;4944615;29;20054;-64
2023/01/06 11:12:59;;;;;;;1.48;0.85;;;10.20;99.90;;;;;;4953654;28;20086;-66
2023/01/06 11:15:33;;;;;;;3.28;0.98;;;10.30;99.90;;;;;;4952576;28;20047;-64
2023/01/06 11:18:02;;;;;;;4.05;1.50;;;10.30;99.90;;;;;;4937187;29;20070;-66
2023/01/06 11:20:30;;;;;;;2.70;1.13;;;10.40;99.90;;;;;;4936352;29;20058;-66
2023/01/06 11:23:12;;;;;;;4.22;1.10;;;10.30;99.90;;;;;;4951892;28;20098;-66
2023/01/06 11:25:38;;;;;;;1.40;0.88;;;10.30;99.90;;;;;;4934459;29;20105;-64
2023/01/06 11:28:19;;;;;;;2.65;1.13;;;10.30;99.90;;;;;;4950899;28;20043;-66
2023/01/06 11:30:51;;;;;;;1.52;1.00;;;10.20;99.90;;;;;;4951427;29;20129;-64
2023/01/06 11:33:21;;;;;;;3.33;0.95;;;10.10;99.90;;;;;;4951889;28;20048;-64
2023/01/06 11:35:47;;;;;;;2.30;1.02;;;10.10;99.90;;;;;;4935837;29;20242;-65
2023/01/06 11:38:14;;;;;;;2.75;1.10;;;10.00;99.90;;;;;;4935724;29;20051;-66
2023/01/06 11:40:40;;;;;;;2.42;0.93;;;10.10;99.90;;;;;;4966808;28;20055;-67
2023/01/06 11:43:21;;;;;;;2.20;1.00;;;10.10;99.90;;;;;;4951674;28;20461;-65
2023/01/06 11:46:06;;;;;;;2.40;1.10;;;10.10;99.90;;;;;;4935416;29;20141;-65
2023/01/06 11:48:33;;;;;;;3.25;1.40;;;10.10;99.90;;;;;;4935866;28;20047;-64
2023/01/06 11:51:01;;;;;;;3.35;1.10;;;10.00;99.90;;;;;;4952096;28;20043;-66
2023/01/06 11:53:28;;;;;;;3.17;1.13;;;10.00;99.90;;;;;;4953683;28;20043;-66
2023/01/06 11:56:04;;;;;;;11.75;1.70;;;10.00;99.90;;;;;;4941379;28;20750;-66
2023/01/06 11:58:41;;;;;;;3.58;1.08;;;10.10;99.90;;;;;;4946440;28;20043;-65
2023/01/06 12:01:12;;;;;;;2.88;1.08;;;10.20;99.90;;;;;;4951849;28;20125;-66
2023/01/06 12:03:40;;;;;;;1.75;1.20;;;10.30;99.90;;;;;;4952280;29;20057;-65
2023/01/06 12:06:12;;;;;;;2.65;1.05;;;10.40;99.90;;;;;;4950888;28;20070;-65
2023/01/06 12:08:51;;;;;;;2.83;1.20;;;10.30;99.90;;;;;;4950815;29;20102;-65
2023/01/06 12:11:47;;;;;;;2.25;1.13;;;10.30;99.90;;;;;;4950518;29;20043;-64
2023/01/06 12:14:18;;;;;;;1.90;1.10;;;10.30;99.90;;;;;;4950283;28;20525;-65
2023/01/06 12:16:55;;;;;;;3.42;1.45;;;10.40;99.90;;;;;;4947625;29;20051;-65
2023/01/06 12:19:48;;;;;;;2.58;1.13;;;10.40;99.90;;;;;;4931511;28;20043;-64
2023/01/06 12:22:25;;;;;;;2.85;1.00;;;10.50;99.90;;;;;;4948775;28;20059;-63
2023/01/06 12:24:51;;;;;;;1.33;1.00;;;10.50;99.90;;;;;;4936404;28;20118;-65
2023/01/06 12:27:22;;;;;;;2.15;0.88;;;10.60;99.90;;;;;;4931168;28;20050;-65
2023/01/06 12:29:48;;;;;;;2.20;0.98;;;10.70;99.90;;;;;;4935710;29;20113;-66
2023/01/06 12:32:19;;;;;;;2.63;0.90;;;10.60;99.90;;;;;;4935589;29;20133;-65
2023/01/06 12:34:47;;;;;;;2.45;0.90;;;10.60;99.90;;;;;;4933404;29;20051;-65
2023/01/06 12:37:28;;;;;;;2.53;1.00;;;10.60;99.90;;;;;;4950772;28;20418;-72
2023/01/06 12:40:22;;;;;;;2.13;1.10;;;10.60;99.90;;;;;;4959025;28;20039;-67
2023/01/06 12:43:14;;;;;;;1.10;0.80;;;10.60;99.90;;;;;;4943544;28;20054;-66
2023/01/06 12:45:48;;;;;;;1.25;0.88;;;10.60;99.90;;;;;;4963244;28;20351;-65
2023/01/06 12:48:25;;;;;;;0.70;0.70;;;10.70;99.90;;;;;;4946844;29;20365;-66
2023/01/06 12:50:52;;;;;;;2.67;0.80;;;10.70;99.90;;;;;;4941990;29;20058;-65
2023/01/06 12:53:24;;;;;;;2.10;1.00;;;10.70;99.90;;;;;;4948241;28;20370;-64
2023/01/06 12:56:28;;;;;;;4.05;1.10;;;10.70;99.90;;;;;;4930635;29;20055;-65
2023/01/06 12:59:39;;;;;;;3.45;1.45;;;10.80;99.90;;;;;;4946544;29;20085;-64
2023/01/06 13:02:23;;;;;;;2.05;1.27;;;10.90;99.90;;;;;;4912613;29;20115;-64
2023/01/06 13:05:22;;;;;;;2.95;1.30;;;11.10;99.90;;;;;;4923153;29;20126;-64
2023/01/06 13:08:31;;;;;;;2.13;1.40;;;11.50;99.90;;;;;;4907027;29;20440;-63